sensor_id;sensor_type;location;lat;lon;timestamp;P1;durP1;ratioP1;P2;durP2;ratioP2
54743;SDS011;40639;53.170;6.728;2023-04-03T00:02:11;3.90;;;0.82;;
54743;SDS011;40639;53.170;6.728;2023-04-03T00:04:37;1.75;;;0.70;;
54743;SDS011;40639;53.170;6.728;2023-04-03T00:07:03;1.75;;;0.55;;
54743;SDS011;40639;53.170;6.728;2023-04-03T00:09:30;3.25;;;0.80;;
54743;SDS011;40639;53.170;6.728;2023-04-03T00:11:56;2.42;;;0.60;;
54743;SDS011;40639;53.170;6.728;2023-04-03T00:14:22;2.00;;;0.60;;
54743;SDS011;40639;53.170;6.728;2023-04-03T00:16:48;2.70;;;0.70;;
54743;SDS011;40639;53.170;6.728;2023-04-03T00:19:14;3.53;;;1.00;;
54743;SDS011;40639;53.170;6.728;2023-04-03T00:21:40;1.67;;;0.50;;
54743;SDS011;40639;53.170;6.728;2023-04-03T00:24:06;1.95;;;0.80;;
54743;SDS011;40639;53.170;6.728;2023-04-03T00:26:32;1.70;;;0.60;;
54743;SDS011;40639;53.170;6.728;2023-04-03T00:28:59;2.83;;;0.90;;
54743;SDS011;40639;53.170;6.728;2023-04-03T00:31:25;2.17;;;0.77;;
54743;SDS011;40639;53.170;6.728;2023-04-03T00:33:51;1.92;;;0.85;;
54743;SDS011;40639;53.170;6.728;2023-04-03T00:36:17;4.68;;;0.77;;
54743;SDS011;40639;53.170;6.728;2023-04-03T00:38:43;1.25;;;0.60;;
54743;SDS011;40639;53.170;6.728;2023-04-03T00:41:10;2.17;;;0.60;;
54743;SDS011;40639;53.170;6.728;2023-04-03T00:43:36;2.17;;;0.68;;
54743;SDS011;40639;53.170;6.728;2023-04-03T00:46:03;2.30;;;0.80;;
54743;SDS011;40639;53.170;6.728;2023-04-03T00:48:31;0.95;;;0.50;;
54743;SDS011;40639;53.170;6.728;2023-04-03T00:50:58;1.75;;;0.70;;
54743;SDS011;40639;53.170;6.728;2023-04-03T00:53:26;2.72;;;0.80;;
54743;SDS011;40639;53.170;6.728;2023-04-03T00:55:53;1.13;;;0.60;;
54743;SDS011;40639;53.170;6.728;2023-04-03T00:58:20;1.75;;;0.90;;
54743;SDS011;40639;53.170;6.728;2023-04-03T01:00:50;1.88;;;0.77;;
54743;SDS011;40639;53.170;6.728;2023-04-03T01:03:21;1.30;;;0.70;;
54743;SDS011;40639;53.170;6.728;2023-04-03T01:05:47;1.65;;;0.50;;
54743;SDS011;40639;53.170;6.728;2023-04-03T01:08:14;3.35;;;1.08;;
54743;SDS011;40639;53.170;6.728;2023-04-03T01:10:40;2.08;;;0.80;;
54743;SDS011;40639;53.170;6.728;2023-04-03T01:13:26;0.88;;;0.60;;
54743;SDS011;40639;53.170;6.728;2023-04-03T01:15:53;2.05;;;0.90;;
54743;SDS011;40639;53.170;6.728;2023-04-03T01:18:20;1.83;;;0.77;;
54743;SDS011;40639;53.170;6.728;2023-04-03T01:26:06;1.70;;;0.73;;
54743;SDS011;40639;53.170;6.728;2023-04-03T01:28:34;1.83;;;0.70;;
54743;SDS011;40639;53.170;6.728;2023-04-03T01:31:12;2.72;;;0.80;;
54743;SDS011;40639;53.170;6.728;2023-04-03T01:33:41;2.35;;;0.90;;
54743;SDS011;40639;53.170;6.728;2023-04-03T01:36:07;1.95;;;0.73;;
54743;SDS011;40639;53.170;6.728;2023-04-03T01:38:34;3.05;;;0.88;;
54743;SDS011;40639;53.170;6.728;2023-04-03T01:41:00;3.53;;;1.30;;
54743;SDS011;40639;53.170;6.728;2023-04-03T01:43:26;2.10;;;0.70;;
54743;SDS011;40639;53.170;6.728;2023-04-03T01:45:52;2.33;;;1.13;;
54743;SDS011;40639;53.170;6.728;2023-04-03T01:48:19;2.22;;;0.80;;
54743;SDS011;40639;53.170;6.728;2023-04-03T01:50:46;2.53;;;1.00;;
54743;SDS011;40639;53.170;6.728;2023-04-03T01:53:12;2.63;;;1.00;;
54743;SDS011;40639;53.170;6.728;2023-04-03T01:55:38;1.88;;;1.00;;
54743;SDS011;40639;53.170;6.728;2023-04-03T01:58:04;1.60;;;0.93;;
54743;SDS011;40639;53.170;6.728;2023-04-03T02:00:31;2.67;;;0.85;;
54743;SDS011;40639;53.170;6.728;2023-04-03T02:02:57;4.80;;;1.23;;
54743;SDS011;40639;53.170;6.728;2023-04-03T02:05:23;3.03;;;1.20;;
54743;SDS011;40639;53.170;6.728;2023-04-03T02:07:49;5.25;;;0.93;;
54743;SDS011;40639;53.170;6.728;2023-04-03T02:10:15;2.42;;;0.80;;
54743;SDS011;40639;53.170;6.728;2023-04-03T02:12:41;3.05;;;0.85;;
54743;SDS011;40639;53.170;6.728;2023-04-03T02:15:08;4.10;;;0.98;;
54743;SDS011;40639;53.170;6.728;2023-04-03T02:17:34;3.70;;;0.77;;
54743;SDS011;40639;53.170;6.728;2023-04-03T02:20:00;5.70;;;1.15;;
54743;SDS011;40639;53.170;6.728;2023-04-03T02:22:28;2.40;;;1.20;;
54743;SDS011;40639;53.170;6.728;2023-04-03T02:24:54;2.17;;;0.98;;
54743;SDS011;40639;53.170;6.728;2023-04-03T02:27:20;3.33;;;1.02;;
54743;SDS011;40639;53.170;6.728;2023-04-03T02:29:46;5.63;;;1.17;;
54743;SDS011;40639;53.170;6.728;2023-04-03T02:32:12;3.67;;;1.58;;
54743;SDS011;40639;53.170;6.728;2023-04-03T02:34:38;3.92;;;1.10;;
54743;SDS011;40639;53.170;6.728;2023-04-03T02:37:04;2.08;;;1.10;;
54743;SDS011;40639;53.170;6.728;2023-04-03T02:39:31;3.42;;;1.10;;
54743;SDS011;40639;53.170;6.728;2023-04-03T02:41:57;3.90;;;1.10;;
54743;SDS011;40639;53.170;6.728;2023-04-03T02:44:23;4.15;;;1.10;;
54743;SDS011;40639;53.170;6.728;2023-04-03T02:46:49;4.32;;;1.10;;
54743;SDS011;40639;53.170;6.728;2023-04-03T02:49:15;6.10;;;1.27;;
54743;SDS011;40639;53.170;6.728;2023-04-03T02:51:42;5.03;;;1.27;;
54743;SDS011;40639;53.170;6.728;2023-04-03T02:54:08;1.88;;;1.00;;
54743;SDS011;40639;53.170;6.728;2023-04-03T02:56:34;3.03;;;1.17;;
54743;SDS011;40639;53.170;6.728;2023-04-03T02:59:01;2.75;;;0.90;;
54743;SDS011;40639;53.170;6.728;2023-04-03T03:01:27;5.22;;;1.15;;
54743;SDS011;40639;53.170;6.728;2023-04-03T03:03:56;2.95;;;1.30;;
54743;SDS011;40639;53.170;6.728;2023-04-03T03:06:22;2.25;;;0.75;;
54743;SDS011;40639;53.170;6.728;2023-04-03T03:08:49;5.57;;;1.40;;
54743;SDS011;40639;53.170;6.728;2023-04-03T03:11:15;4.35;;;1.10;;
54743;SDS011;40639;53.170;6.728;2023-04-03T03:13:41;2.83;;;1.02;;
54743;SDS011;40639;53.170;6.728;2023-04-03T03:16:07;3.50;;;1.20;;
54743;SDS011;40639;53.170;6.728;2023-04-03T03:18:34;3.72;;;1.50;;
54743;SDS011;40639;53.170;6.728;2023-04-03T03:21:00;3.85;;;1.30;;
54743;SDS011;40639;53.170;6.728;2023-04-03T03:23:28;3.00;;;0.90;;
54743;SDS011;40639;53.170;6.728;2023-04-03T03:26:01;4.35;;;1.25;;
54743;SDS011;40639;53.170;6.728;2023-04-03T03:28:28;6.32;;;1.63;;
54743;SDS011;40639;53.170;6.728;2023-04-03T03:30:54;3.65;;;1.30;;
54743;SDS011;40639;53.170;6.728;2023-04-03T03:33:20;4.15;;;1.20;;
54743;SDS011;40639;53.170;6.728;2023-04-03T03:35:46;2.83;;;1.20;;
54743;SDS011;40639;53.170;6.728;2023-04-03T03:38:13;2.45;;;1.05;;
54743;SDS011;40639;53.170;6.728;2023-04-03T03:40:39;4.65;;;1.20;;
54743;SDS011;40639;53.170;6.728;2023-04-03T03:43:05;3.58;;;1.33;;
54743;SDS011;40639;53.170;6.728;2023-04-03T03:45:31;2.63;;;1.20;;
54743;SDS011;40639;53.170;6.728;2023-04-03T03:47:57;5.38;;;1.45;;
54743;SDS011;40639;53.170;6.728;2023-04-03T03:50:23;2.95;;;1.30;;
54743;SDS011;40639;53.170;6.728;2023-04-03T03:52:50;3.47;;;1.25;;
54743;SDS011;40639;53.170;6.728;2023-04-03T03:55:16;2.60;;;1.38;;
54743;SDS011;40639;53.170;6.728;2023-04-03T03:57:42;4.95;;;1.80;;
54743;SDS011;40639;53.170;6.728;2023-04-03T04:00:08;3.15;;;1.33;;
54743;SDS011;40639;53.170;6.728;2023-04-03T04:02:34;5.07;;;1.48;;
54743;SDS011;40639;53.170;6.728;2023-04-03T04:05:01;2.25;;;1.27;;
54743;SDS011;40639;53.170;6.728;2023-04-03T04:07:27;3.47;;;1.40;;
54743;SDS011;40639;53.170;6.728;2023-04-03T04:09:54;3.72;;;1.15;;
54743;SDS011;40639;53.170;6.728;2023-04-03T04:12:20;4.03;;;1.48;;
54743;SDS011;40639;53.170;6.728;2023-04-03T04:14:46;4.03;;;1.48;;
54743;SDS011;40639;53.170;6.728;2023-04-03T04:17:13;5.25;;;1.45;;
54743;SDS011;40639;53.170;6.728;2023-04-03T04:19:39;4.75;;;1.27;;
54743;SDS011;40639;53.170;6.728;2023-04-03T04:22:06;4.45;;;1.33;;
54743;SDS011;40639;53.170;6.728;2023-04-03T04:24:32;5.25;;;1.60;;
54743;SDS011;40639;53.170;6.728;2023-04-03T04:26:58;4.38;;;1.52;;
54743;SDS011;40639;53.170;6.728;2023-04-03T04:29:24;4.28;;;1.20;;
54743;SDS011;40639;53.170;6.728;2023-04-03T04:31:50;4.90;;;1.90;;
54743;SDS011;40639;53.170;6.728;2023-04-03T04:34:16;6.50;;;1.42;;
54743;SDS011;40639;53.170;6.728;2023-04-03T04:36:42;4.45;;;1.42;;
54743;SDS011;40639;53.170;6.728;2023-04-03T04:39:09;4.03;;;1.80;;
54743;SDS011;40639;53.170;6.728;2023-04-03T04:41:35;5.93;;;2.10;;
54743;SDS011;40639;53.170;6.728;2023-04-03T04:44:01;2.83;;;1.48;;
54743;SDS011;40639;53.170;6.728;2023-04-03T04:46:27;4.15;;;1.27;;
54743;SDS011;40639;53.170;6.728;2023-04-03T04:48:53;4.30;;;1.50;;
54743;SDS011;40639;53.170;6.728;2023-04-03T04:51:20;4.13;;;1.48;;
54743;SDS011;40639;53.170;6.728;2023-04-03T04:53:46;4.82;;;1.67;;
54743;SDS011;40639;53.170;6.728;2023-04-03T04:56:12;4.90;;;1.60;;
54743;SDS011;40639;53.170;6.728;2023-04-03T04:58:38;3.63;;;1.85;;
54743;SDS011;40639;53.170;6.728;2023-04-03T05:01:05;7.22;;;1.70;;
54743;SDS011;40639;53.170;6.728;2023-04-03T05:03:32;3.45;;;1.50;;
54743;SDS011;40639;53.170;6.728;2023-04-03T05:05:58;4.22;;;1.48;;
54743;SDS011;40639;53.170;6.728;2023-04-03T05:08:24;4.90;;;1.63;;
54743;SDS011;40639;53.170;6.728;2023-04-03T05:10:50;7.78;;;2.03;;
54743;SDS011;40639;53.170;6.728;2023-04-03T05:13:18;4.47;;;1.67;;
54743;SDS011;40639;53.170;6.728;2023-04-03T05:15:44;5.57;;;2.00;;
54743;SDS011;40639;53.170;6.728;2023-04-03T05:18:10;3.22;;;1.48;;
54743;SDS011;40639;53.170;6.728;2023-04-03T05:20:36;4.78;;;2.10;;
54743;SDS011;40639;53.170;6.728;2023-04-03T05:23:02;3.10;;;1.60;;
54743;SDS011;40639;53.170;6.728;2023-04-03T05:25:29;7.60;;;1.80;;
54743;SDS011;40639;53.170;6.728;2023-04-03T05:27:55;3.78;;;1.35;;
54743;SDS011;40639;53.170;6.728;2023-04-03T05:30:21;6.15;;;1.73;;
54743;SDS011;40639;53.170;6.728;2023-04-03T05:32:48;5.75;;;1.90;;
54743;SDS011;40639;53.170;6.728;2023-04-03T05:35:14;6.30;;;1.88;;
54743;SDS011;40639;53.170;6.728;2023-04-03T05:37:40;3.90;;;1.70;;
54743;SDS011;40639;53.170;6.728;2023-04-03T05:40:06;5.70;;;1.55;;
54743;SDS011;40639;53.170;6.728;2023-04-03T05:42:33;5.60;;;1.70;;
54743;SDS011;40639;53.170;6.728;2023-04-03T05:44:59;5.90;;;1.63;;
54743;SDS011;40639;53.170;6.728;2023-04-03T05:47:25;3.90;;;1.60;;
54743;SDS011;40639;53.170;6.728;2023-04-03T05:49:52;5.57;;;1.80;;
54743;SDS011;40639;53.170;6.728;2023-04-03T05:52:22;5.63;;;2.13;;
54743;SDS011;40639;53.170;6.728;2023-04-03T05:54:49;4.97;;;1.98;;
54743;SDS011;40639;53.170;6.728;2023-04-03T05:57:15;5.40;;;1.80;;
54743;SDS011;40639;53.170;6.728;2023-04-03T05:59:42;4.70;;;1.65;;
54743;SDS011;40639;53.170;6.728;2023-04-03T06:02:12;4.53;;;1.60;;
54743;SDS011;40639;53.170;6.728;2023-04-03T06:04:38;5.10;;;1.73;;
54743;SDS011;40639;53.170;6.728;2023-04-03T06:07:05;5.10;;;1.92;;
54743;SDS011;40639;53.170;6.728;2023-04-03T06:09:32;6.28;;;1.90;;
54743;SDS011;40639;53.170;6.728;2023-04-03T06:11:58;4.88;;;1.75;;
54743;SDS011;40639;53.170;6.728;2023-04-03T06:14:25;5.07;;;1.75;;
54743;SDS011;40639;53.170;6.728;2023-04-03T06:16:52;6.85;;;1.95;;
54743;SDS011;40639;53.170;6.728;2023-04-03T06:19:19;5.97;;;1.90;;
54743;SDS011;40639;53.170;6.728;2023-04-03T06:21:45;7.43;;;1.70;;
54743;SDS011;40639;53.170;6.728;2023-04-03T06:24:13;9.35;;;2.70;;
54743;SDS011;40639;53.170;6.728;2023-04-03T06:26:40;5.25;;;1.58;;
54743;SDS011;40639;53.170;6.728;2023-04-03T06:29:06;8.88;;;2.28;;
54743;SDS011;40639;53.170;6.728;2023-04-03T06:31:32;4.03;;;1.63;;
54743;SDS011;40639;53.170;6.728;2023-04-03T06:33:59;3.83;;;1.90;;
54743;SDS011;40639;53.170;6.728;2023-04-03T06:36:25;6.72;;;1.73;;
54743;SDS011;40639;53.170;6.728;2023-04-03T06:38:51;4.32;;;1.90;;
54743;SDS011;40639;53.170;6.728;2023-04-03T06:41:17;6.72;;;2.13;;
54743;SDS011;40639;53.170;6.728;2023-04-03T06:43:43;8.20;;;2.08;;
54743;SDS011;40639;53.170;6.728;2023-04-03T06:46:14;12.77;;;2.20;;
54743;SDS011;40639;53.170;6.728;2023-04-03T06:48:40;6.07;;;1.85;;
54743;SDS011;40639;53.170;6.728;2023-04-03T06:51:08;7.90;;;2.30;;
54743;SDS011;40639;53.170;6.728;2023-04-03T06:53:35;4.88;;;1.85;;
54743;SDS011;40639;53.170;6.728;2023-04-03T06:56:02;22.35;;;4.07;;
54743;SDS011;40639;53.170;6.728;2023-04-03T06:58:28;8.18;;;2.33;;
54743;SDS011;40639;53.170;6.728;2023-04-03T07:00:54;7.25;;;2.08;;
54743;SDS011;40639;53.170;6.728;2023-04-03T07:03:20;5.72;;;1.80;;
54743;SDS011;40639;53.170;6.728;2023-04-03T07:05:46;5.00;;;1.98;;
54743;SDS011;40639;53.170;6.728;2023-04-03T07:08:13;7.15;;;2.08;;
54743;SDS011;40639;53.170;6.728;2023-04-03T07:10:39;6.45;;;2.17;;
54743;SDS011;40639;53.170;6.728;2023-04-03T07:13:05;12.10;;;3.22;;
54743;SDS011;40639;53.170;6.728;2023-04-03T07:15:31;10.35;;;2.42;;
54743;SDS011;40639;53.170;6.728;2023-04-03T07:17:58;4.85;;;2.05;;
54743;SDS011;40639;53.170;6.728;2023-04-03T07:20:24;4.43;;;1.73;;
54743;SDS011;40639;53.170;6.728;2023-04-03T07:22:51;5.90;;;1.85;;
54743;SDS011;40639;53.170;6.728;2023-04-03T07:25:17;5.72;;;1.95;;
54743;SDS011;40639;53.170;6.728;2023-04-03T07:27:43;7.72;;;2.70;;
54743;SDS011;40639;53.170;6.728;2023-04-03T07:30:09;15.75;;;3.20;;
54743;SDS011;40639;53.170;6.728;2023-04-03T07:32:36;6.80;;;1.90;;
54743;SDS011;40639;53.170;6.728;2023-04-03T07:35:02;6.65;;;1.85;;
54743;SDS011;40639;53.170;6.728;2023-04-03T07:37:28;13.75;;;2.38;;
54743;SDS011;40639;53.170;6.728;2023-04-03T07:39:55;9.18;;;1.90;;
54743;SDS011;40639;53.170;6.728;2023-04-03T07:42:22;8.27;;;2.65;;
54743;SDS011;40639;53.170;6.728;2023-04-03T07:44:48;12.77;;;3.42;;
54743;SDS011;40639;53.170;6.728;2023-04-03T07:47:14;5.55;;;1.70;;
54743;SDS011;40639;53.170;6.728;2023-04-03T07:49:42;11.73;;;2.72;;
54743;SDS011;40639;53.170;6.728;2023-04-03T07:52:08;14.07;;;3.22;;
54743;SDS011;40639;53.170;6.728;2023-04-03T07:54:35;20.75;;;3.45;;
54743;SDS011;40639;53.170;6.728;2023-04-03T07:57:01;15.18;;;3.10;;
54743;SDS011;40639;53.170;6.728;2023-04-03T07:59:27;9.88;;;1.90;;
54743;SDS011;40639;53.170;6.728;2023-04-03T08:01:53;18.98;;;3.60;;
54743;SDS011;40639;53.170;6.728;2023-04-03T08:04:22;16.33;;;2.63;;
54743;SDS011;40639;53.170;6.728;2023-04-03T08:06:48;14.10;;;2.53;;
54743;SDS011;40639;53.170;6.728;2023-04-03T08:09:15;3.75;;;1.40;;
54743;SDS011;40639;53.170;6.728;2023-04-03T08:11:41;7.93;;;2.00;;
54743;SDS011;40639;53.170;6.728;2023-04-03T08:14:07;16.40;;;2.70;;
54743;SDS011;40639;53.170;6.728;2023-04-03T08:16:40;10.30;;;2.45;;
54743;SDS011;40639;53.170;6.728;2023-04-03T08:19:06;9.68;;;2.30;;
54743;SDS011;40639;53.170;6.728;2023-04-03T08:21:33;12.75;;;2.78;;
54743;SDS011;40639;53.170;6.728;2023-04-03T08:23:59;14.75;;;3.35;;
54743;SDS011;40639;53.170;6.728;2023-04-03T08:26:25;6.80;;;2.40;;
54743;SDS011;40639;53.170;6.728;2023-04-03T08:28:52;6.22;;;1.70;;
54743;SDS011;40639;53.170;6.728;2023-04-03T08:31:18;12.93;;;2.92;;
54743;SDS011;40639;53.170;6.728;2023-04-03T08:33:45;14.55;;;2.80;;
54743;SDS011;40639;53.170;6.728;2023-04-03T08:36:21;8.98;;;2.17;;
54743;SDS011;40639;53.170;6.728;2023-04-03T08:38:48;7.35;;;1.80;;
54743;SDS011;40639;53.170;6.728;2023-04-03T08:46:22;11.38;;;2.38;;
54743;SDS011;40639;53.170;6.728;2023-04-03T08:48:52;12.02;;;2.38;;
54743;SDS011;40639;53.170;6.728;2023-04-03T08:51:19;6.20;;;1.95;;
54743;SDS011;40639;53.170;6.728;2023-04-03T08:53:56;9.02;;;2.13;;
54743;SDS011;40639;53.170;6.728;2023-04-03T08:56:24;4.63;;;1.52;;
54743;SDS011;40639;53.170;6.728;2023-04-03T08:58:52;4.53;;;1.92;;
54743;SDS011;40639;53.170;6.728;2023-04-03T09:01:23;6.22;;;1.60;;
54743;SDS011;40639;53.170;6.728;2023-04-03T09:03:51;9.23;;;1.75;;
54743;SDS011;40639;53.170;6.728;2023-04-03T09:06:26;9.55;;;2.00;;
54743;SDS011;40639;53.170;6.728;2023-04-03T09:11:27;3.33;;;1.10;;
54743;SDS011;40639;53.170;6.728;2023-04-03T09:21:38;10.77;;;1.98;;
54743;SDS011;40639;53.170;6.728;2023-04-03T09:24:09;7.38;;;1.48;;
54743;SDS011;40639;53.170;6.728;2023-04-03T09:26:38;5.65;;;1.00;;
54743;SDS011;40639;53.170;6.728;2023-04-03T09:29:08;10.63;;;1.40;;
54743;SDS011;40639;53.170;6.728;2023-04-03T09:31:39;9.10;;;2.42;;
54743;SDS011;40639;53.170;6.728;2023-04-03T09:34:08;4.13;;;1.08;;
54743;SDS011;40639;53.170;6.728;2023-04-03T09:36:42;4.10;;;1.58;;
54743;SDS011;40639;53.170;6.728;2023-04-03T09:41:41;10.10;;;5.55;;
54743;SDS011;40639;53.170;6.728;2023-04-03T09:44:19;3.35;;;1.90;;
54743;SDS011;40639;53.170;6.728;2023-04-03T09:46:46;5.78;;;2.20;;
54743;SDS011;40639;53.170;6.728;2023-04-03T09:49:12;5.80;;;2.53;;
54743;SDS011;40639;53.170;6.728;2023-04-03T09:51:38;4.75;;;2.20;;
54743;SDS011;40639;53.170;6.728;2023-04-03T09:56:51;4.55;;;1.60;;
54743;SDS011;40639;53.170;6.728;2023-04-03T09:59:18;7.13;;;2.80;;
54743;SDS011;40639;53.170;6.728;2023-04-03T10:04:43;3.90;;;1.60;;
54743;SDS011;40639;53.170;6.728;2023-04-03T10:09:57;17.35;;;2.47;;
54743;SDS011;40639;53.170;6.728;2023-04-03T10:12:23;13.20;;;1.95;;
54743;SDS011;40639;53.170;6.728;2023-04-03T10:25:03;4.95;;;1.00;;
54743;SDS011;40639;53.170;6.728;2023-04-03T10:30:25;8.63;;;1.65;;
54743;SDS011;40639;53.170;6.728;2023-04-03T10:38:31;4.53;;;0.90;;
54743;SDS011;40639;53.170;6.728;2023-04-03T10:43:42;7.32;;;1.55;;
54743;SDS011;40639;53.170;6.728;2023-04-03T10:46:13;3.47;;;0.98;;
54743;SDS011;40639;53.170;6.728;2023-04-03T10:48:48;6.35;;;1.00;;
54743;SDS011;40639;53.170;6.728;2023-04-03T10:56:41;3.35;;;0.93;;
54743;SDS011;40639;53.170;6.728;2023-04-03T11:01:41;3.47;;;0.82;;
54743;SDS011;40639;53.170;6.728;2023-04-03T11:04:08;5.45;;;0.77;;
54743;SDS011;40639;53.170;6.728;2023-04-03T11:06:38;1.75;;;0.70;;
54743;SDS011;40639;53.170;6.728;2023-04-03T11:11:44;2.75;;;0.80;;
54743;SDS011;40639;53.170;6.728;2023-04-03T11:14:30;3.58;;;0.80;;
54743;SDS011;40639;53.170;6.728;2023-04-03T11:19:39;3.15;;;0.57;;
54743;SDS011;40639;53.170;6.728;2023-04-03T11:22:13;2.95;;;0.70;;
54743;SDS011;40639;53.170;6.728;2023-04-03T11:24:42;7.28;;;1.17;;
54743;SDS011;40639;53.170;6.728;2023-04-03T11:27:11;4.55;;;0.73;;
54743;SDS011;40639;53.170;6.728;2023-04-03T11:29:41;3.33;;;0.93;;
54743;SDS011;40639;53.170;6.728;2023-04-03T11:32:26;2.65;;;0.77;;
54743;SDS011;40639;53.170;6.728;2023-04-03T11:34:56;1.08;;;0.70;;
54743;SDS011;40639;53.170;6.728;2023-04-03T11:40:02;9.63;;;1.20;;
54743;SDS011;40639;53.170;6.728;2023-04-03T11:45:22;3.15;;;1.00;;
54743;SDS011;40639;53.170;6.728;2023-04-03T11:47:51;1.65;;;0.73;;
54743;SDS011;40639;53.170;6.728;2023-04-03T11:50:30;6.53;;;1.38;;
54743;SDS011;40639;53.170;6.728;2023-04-03T11:52:58;3.70;;;0.98;;
54743;SDS011;40639;53.170;6.728;2023-04-03T12:08:28;1.60;;;0.65;;
54743;SDS011;40639;53.170;6.728;2023-04-03T12:16:27;3.40;;;0.90;;
54743;SDS011;40639;53.170;6.728;2023-04-03T12:26:44;2.80;;;1.10;;
54743;SDS011;40639;53.170;6.728;2023-04-03T12:45:26;2.78;;;1.17;;
54743;SDS011;40639;53.170;6.728;2023-04-03T12:47:53;2.75;;;1.00;;
54743;SDS011;40639;53.170;6.728;2023-04-03T12:50:21;2.45;;;0.80;;
54743;SDS011;40639;53.170;6.728;2023-04-03T12:52:54;4.00;;;1.33;;
54743;SDS011;40639;53.170;6.728;2023-04-03T12:55:22;2.25;;;0.80;;
54743;SDS011;40639;53.170;6.728;2023-04-03T12:57:48;5.32;;;1.00;;
54743;SDS011;40639;53.170;6.728;2023-04-03T13:00:18;2.42;;;1.33;;
54743;SDS011;40639;53.170;6.728;2023-04-03T13:02:44;3.17;;;0.85;;
54743;SDS011;40639;53.170;6.728;2023-04-03T13:05:14;3.72;;;1.00;;
54743;SDS011;40639;53.170;6.728;2023-04-03T13:07:41;3.75;;;0.80;;
54743;SDS011;40639;53.170;6.728;2023-04-03T13:12:35;1.27;;;0.77;;
54743;SDS011;40639;53.170;6.728;2023-04-03T13:15:15;1.13;;;0.63;;
54743;SDS011;40639;53.170;6.728;2023-04-03T13:17:43;1.45;;;0.60;;
54743;SDS011;40639;53.170;6.728;2023-04-03T13:20:14;1.10;;;0.70;;
54743;SDS011;40639;53.170;6.728;2023-04-03T13:22:48;0.80;;;0.68;;
54743;SDS011;40639;53.170;6.728;2023-04-03T13:25:16;3.40;;;0.88;;
54743;SDS011;40639;53.170;6.728;2023-04-03T13:27:43;9.55;;;1.60;;
54743;SDS011;40639;53.170;6.728;2023-04-03T13:32:54;1.55;;;0.73;;
54743;SDS011;40639;53.170;6.728;2023-04-03T13:35:25;3.10;;;0.80;;
54743;SDS011;40639;53.170;6.728;2023-04-03T13:37:56;2.88;;;0.95;;
54743;SDS011;40639;53.170;6.728;2023-04-03T13:40:22;1.33;;;0.75;;
54743;SDS011;40639;53.170;6.728;2023-04-03T13:42:58;3.03;;;1.10;;
54743;SDS011;40639;53.170;6.728;2023-04-03T13:45:26;2.55;;;0.88;;
54743;SDS011;40639;53.170;6.728;2023-04-03T13:48:09;2.08;;;1.02;;
54743;SDS011;40639;53.170;6.728;2023-04-03T13:50:49;3.88;;;1.40;;
54743;SDS011;40639;53.170;6.728;2023-04-03T13:53:16;5.38;;;1.77;;
54743;SDS011;40639;53.170;6.728;2023-04-03T13:55:57;10.95;;;1.90;;
54743;SDS011;40639;53.170;6.728;2023-04-03T13:58:27;1.10;;;0.80;;
54743;SDS011;40639;53.170;6.728;2023-04-03T14:01:11;2.03;;;1.35;;
54743;SDS011;40639;53.170;6.728;2023-04-03T14:03:45;2.97;;;1.00;;
54743;SDS011;40639;53.170;6.728;2023-04-03T14:06:13;2.28;;;0.70;;
54743;SDS011;40639;53.170;6.728;2023-04-03T14:15:16;14.15;;;2.20;;
54743;SDS011;40639;53.170;6.728;2023-04-03T14:17:42;3.33;;;0.90;;
54743;SDS011;40639;53.170;6.728;2023-04-03T14:20:21;2.67;;;0.80;;
54743;SDS011;40639;53.170;6.728;2023-04-03T14:22:47;1.70;;;0.70;;
54743;SDS011;40639;53.170;6.728;2023-04-03T14:25:14;2.55;;;0.70;;
54743;SDS011;40639;53.170;6.728;2023-04-03T14:27:42;5.15;;;2.55;;
54743;SDS011;40639;53.170;6.728;2023-04-03T14:30:09;1.17;;;0.73;;
54743;SDS011;40639;53.170;6.728;2023-04-03T14:32:38;1.00;;;0.70;;
54743;SDS011;40639;53.170;6.728;2023-04-03T14:35:04;2.38;;;0.88;;
54743;SDS011;40639;53.170;6.728;2023-04-03T14:37:31;3.50;;;0.60;;
54743;SDS011;40639;53.170;6.728;2023-04-03T14:39:59;2.55;;;0.57;;
54743;SDS011;40639;53.170;6.728;2023-04-03T14:42:29;2.08;;;0.75;;
54743;SDS011;40639;53.170;6.728;2023-04-03T14:44:56;2.67;;;0.85;;
54743;SDS011;40639;53.170;6.728;2023-04-03T14:47:24;2.42;;;0.70;;
54743;SDS011;40639;53.170;6.728;2023-04-03T14:49:51;18.23;;;2.25;;
54743;SDS011;40639;53.170;6.728;2023-04-03T14:52:29;1.95;;;0.95;;
54743;SDS011;40639;53.170;6.728;2023-04-03T14:54:55;5.35;;;1.20;;
54743;SDS011;40639;53.170;6.728;2023-04-03T14:57:23;3.53;;;0.90;;
54743;SDS011;40639;53.170;6.728;2023-04-03T14:59:50;2.55;;;0.70;;
54743;SDS011;40639;53.170;6.728;2023-04-03T15:04:55;10.77;;;1.52;;
54743;SDS011;40639;53.170;6.728;2023-04-03T15:07:22;3.15;;;1.00;;
54743;SDS011;40639;53.170;6.728;2023-04-03T15:09:48;5.07;;;1.10;;
54743;SDS011;40639;53.170;6.728;2023-04-03T15:12:15;2.45;;;0.85;;
54743;SDS011;40639;53.170;6.728;2023-04-03T15:14:41;9.05;;;1.77;;
54743;SDS011;40639;53.170;6.728;2023-04-03T15:17:14;2.80;;;1.10;;
54743;SDS011;40639;53.170;6.728;2023-04-03T15:19:41;2.08;;;1.08;;
54743;SDS011;40639;53.170;6.728;2023-04-03T15:22:11;1.63;;;0.85;;
54743;SDS011;40639;53.170;6.728;2023-04-03T15:24:39;2.90;;;0.95;;
54743;SDS011;40639;53.170;6.728;2023-04-03T15:27:05;2.60;;;1.10;;
54743;SDS011;40639;53.170;6.728;2023-04-03T15:29:31;16.80;;;2.17;;
54743;SDS011;40639;53.170;6.728;2023-04-03T15:31:58;2.88;;;0.93;;
54743;SDS011;40639;53.170;6.728;2023-04-03T15:34:24;2.13;;;1.10;;
54743;SDS011;40639;53.170;6.728;2023-04-03T15:36:50;3.72;;;1.20;;
54743;SDS011;40639;53.170;6.728;2023-04-03T15:39:17;2.28;;;0.82;;
54743;SDS011;40639;53.170;6.728;2023-04-03T15:41:44;21.02;;;2.88;;
54743;SDS011;40639;53.170;6.728;2023-04-03T15:44:10;4.85;;;1.48;;
54743;SDS011;40639;53.170;6.728;2023-04-03T15:46:37;1.73;;;0.70;;
54743;SDS011;40639;53.170;6.728;2023-04-03T15:49:04;1.80;;;0.68;;
54743;SDS011;40639;53.170;6.728;2023-04-03T15:51:30;1.00;;;0.63;;
54743;SDS011;40639;53.170;6.728;2023-04-03T15:53:56;1.90;;;0.80;;
54743;SDS011;40639;53.170;6.728;2023-04-03T15:56:23;2.28;;;0.73;;
54743;SDS011;40639;53.170;6.728;2023-04-03T15:58:49;11.27;;;1.42;;
54743;SDS011;40639;53.170;6.728;2023-04-03T16:01:15;4.88;;;1.10;;
54743;SDS011;40639;53.170;6.728;2023-04-03T16:03:42;2.05;;;0.80;;
54743;SDS011;40639;53.170;6.728;2023-04-03T16:06:16;1.38;;;0.57;;
54743;SDS011;40639;53.170;6.728;2023-04-03T16:08:43;1.45;;;0.60;;
54743;SDS011;40639;53.170;6.728;2023-04-03T16:11:10;1.17;;;0.60;;
54743;SDS011;40639;53.170;6.728;2023-04-03T16:13:36;5.50;;;1.00;;
54743;SDS011;40639;53.170;6.728;2023-04-03T16:16:02;1.35;;;0.57;;
54743;SDS011;40639;53.170;6.728;2023-04-03T16:18:28;3.00;;;1.27;;
54743;SDS011;40639;53.170;6.728;2023-04-03T16:20:55;6.13;;;2.03;;
54743;SDS011;40639;53.170;6.728;2023-04-03T16:23:21;4.32;;;1.00;;
54743;SDS011;40639;53.170;6.728;2023-04-03T16:25:47;2.83;;;0.90;;
54743;SDS011;40639;53.170;6.728;2023-04-03T16:28:15;3.15;;;1.55;;
54743;SDS011;40639;53.170;6.728;2023-04-03T16:30:42;1.45;;;0.80;;
54743;SDS011;40639;53.170;6.728;2023-04-03T16:33:09;2.65;;;0.68;;
54743;SDS011;40639;53.170;6.728;2023-04-03T16:35:36;2.38;;;0.52;;
54743;SDS011;40639;53.170;6.728;2023-04-03T16:38:02;0.88;;;0.50;;
54743;SDS011;40639;53.170;6.728;2023-04-03T16:40:28;1.40;;;0.60;;
54743;SDS011;40639;53.170;6.728;2023-04-03T16:42:54;1.67;;;0.70;;
54743;SDS011;40639;53.170;6.728;2023-04-03T16:45:20;1.02;;;0.63;;
54743;SDS011;40639;53.170;6.728;2023-04-03T16:47:46;1.42;;;0.68;;
54743;SDS011;40639;53.170;6.728;2023-04-03T16:50:13;1.25;;;0.60;;
54743;SDS011;40639;53.170;6.728;2023-04-03T16:52:39;1.90;;;0.70;;
54743;SDS011;40639;53.170;6.728;2023-04-03T16:55:06;3.10;;;0.70;;
54743;SDS011;40639;53.170;6.728;2023-04-03T16:57:32;2.50;;;0.82;;